createdAt,value
2018-08-05T00:04:01.000Z,29.2
2018-08-05T00:14:01.000Z,29.18
2018-08-05T00:24:01.000Z,29.11
2018-08-05T00:34:01.000Z,29.09
2018-08-05T00:44:01.000Z,29.07
2018-08-05T00:54:01.000Z,29
2018-08-05T01:04:01.000Z,28.95
2018-08-05T01:14:01.000Z,28.95
2018-08-05T01:24:01.000Z,28.9
2018-08-05T01:34:01.000Z,28.87
2018-08-05T01:44:01.000Z,28.83
2018-08-05T01:54:01.000Z,28.75
2018-08-05T02:04:02.000Z,28.7
2018-08-05T02:14:01.000Z,28.66
2018-08-05T02:24:01.000Z,28.61
2018-08-05T02:34:01.000Z,28.58
2018-08-05T02:44:03.000Z,28.52
2018-08-05T02:54:01.000Z,28.49
2018-08-05T03:04:01.000Z,28.44
2018-08-05T03:14:01.000Z,28.36
2018-08-05T03:24:01.000Z,28.35
2018-08-05T03:34:01.000Z,28.33
2018-08-05T03:44:01.000Z,28.26
2018-08-05T03:54:01.000Z,28.21
2018-08-05T04:04:01.000Z,28.18
2018-08-05T04:14:01.000Z,28.15
2018-08-05T04:24:01.000Z,28.06
2018-08-05T04:34:01.000Z,28.06
2018-08-05T04:44:01.000Z,28.02
2018-08-05T04:54:01.000Z,28.04
2018-08-05T05:04:01.000Z,28.01
2018-08-05T05:14:02.000Z,27.97
2018-08-05T05:24:02.000Z,28
2018-08-05T05:34:02.000Z,27.97
2018-08-05T05:44:02.000Z,27.96
2018-08-05T05:54:02.000Z,27.94
2018-08-05T06:04:02.000Z,27.86
2018-08-05T06:14:02.000Z,27.83
2018-08-05T06:24:02.000Z,27.81
2018-08-05T06:34:02.000Z,27.73
2018-08-05T06:44:02.000Z,27.78
2018-08-05T06:54:02.000Z,27.74
2018-08-05T07:04:02.000Z,27.69
2018-08-05T07:14:02.000Z,27.69
2018-08-05T07:24:02.000Z,27.63
2018-08-05T07:34:02.000Z,27.79
2018-08-05T07:44:02.000Z,27.69
2018-08-05T07:54:02.000Z,27.55
2018-08-05T08:04:02.000Z,27.57
2018-08-05T08:14:03.000Z,27.91
2018-08-05T08:24:02.000Z,27.86
2018-08-05T08:34:02.000Z,28.17
2018-08-05T08:44:02.000Z,28.14
2018-08-05T08:54:02.000Z,28.1
2018-08-05T09:04:02.000Z,28.16
2018-08-05T09:14:02.000Z,28.32
2018-08-05T09:24:02.000Z,28.31
2018-08-05T09:34:02.000Z,28.52
2018-08-05T09:44:02.000Z,28.58
2018-08-05T09:54:02.000Z,28.85
2018-08-05T10:04:02.000Z,28.91
2018-08-05T10:14:02.000Z,28.87
2018-08-05T10:24:02.000Z,29.01
2018-08-05T10:34:02.000Z,29.15
2018-08-05T10:44:02.000Z,28.73
2018-08-05T10:54:02.000Z,29.13
2018-08-05T11:04:02.000Z,28.76
2018-08-05T11:14:03.000Z,29.24
2018-08-05T11:24:02.000Z,29.27
2018-08-05T11:34:02.000Z,29.49
2018-08-05T11:44:02.000Z,29.29
2018-08-05T11:54:03.000Z,29.39
2018-08-05T12:04:02.000Z,29.63
2018-08-05T12:14:02.000Z,29.72
2018-08-05T12:24:02.000Z,29.58
2018-08-05T12:34:02.000Z,29.74
2018-08-05T12:44:02.000Z,29.89
2018-08-05T12:54:02.000Z,29.91
2018-08-05T13:04:02.000Z,29.57
2018-08-05T13:14:02.000Z,29.48
2018-08-05T13:24:05.000Z,29.69
2018-08-05T13:34:03.000Z,29.56
2018-08-05T13:44:03.000Z,29.46
2018-08-05T13:54:04.000Z,29.67
2018-08-05T14:04:03.000Z,29.43
2018-08-05T14:14:03.000Z,29.42
2018-08-05T14:24:03.000Z,29.34
2018-08-05T14:34:03.000Z,29.15
2018-08-05T14:44:03.000Z,29.09
2018-08-05T14:54:03.000Z,29.27
2018-08-05T15:04:03.000Z,29.29
2018-08-05T15:14:03.000Z,29.32
2018-08-05T15:24:03.000Z,29.13
2018-08-05T15:34:03.000Z,28.86
2018-08-05T15:44:03.000Z,29.05
2018-08-05T15:54:03.000Z,28.84
2018-08-05T16:04:03.000Z,29.04
2018-08-05T16:14:03.000Z,29.04
2018-08-05T16:24:03.000Z,29.09
2018-08-05T16:34:03.000Z,29
2018-08-05T16:44:03.000Z,29.1
2018-08-05T16:54:04.000Z,29.06
2018-08-05T17:04:03.000Z,28.9
2018-08-05T17:14:03.000Z,28.94
2018-08-05T17:24:03.000Z,29.07
2018-08-05T17:34:03.000Z,28.9
2018-08-05T17:44:03.000Z,29.06
2018-08-05T17:54:03.000Z,28.91
2018-08-05T18:04:03.000Z,28.92
2018-08-05T18:14:03.000Z,28.87
2018-08-05T18:24:03.000Z,28.83
2018-08-05T18:34:03.000Z,28.82
2018-08-05T18:44:03.000Z,28.73
2018-08-05T18:54:03.000Z,28.71
2018-08-05T19:04:03.000Z,28.69
2018-08-05T19:14:03.000Z,28.61
2018-08-05T19:24:03.000Z,28.53
2018-08-05T19:34:03.000Z,28.47
2018-08-05T19:44:03.000Z,28.4
2018-08-05T19:54:03.000Z,28.34
2018-08-05T20:04:03.000Z,28.34
2018-08-05T20:14:03.000Z,28.35
2018-08-05T20:24:03.000Z,28.23
2018-08-05T20:34:03.000Z,28.21
2018-08-05T20:44:03.000Z,28.14
2018-08-05T20:54:03.000Z,28.06
2018-08-05T21:04:03.000Z,27.88
2018-08-05T21:14:03.000Z,27.9
2018-08-05T21:24:04.000Z,27.73
2018-08-05T21:34:04.000Z,27.48
2018-08-05T21:44:04.000Z,27.37
2018-08-05T21:54:04.000Z,27.47
2018-08-05T22:04:04.000Z,27.41
2018-08-05T22:14:04.000Z,27.44
2018-08-05T22:24:04.000Z,27.42
2018-08-05T22:34:04.000Z,27.37
2018-08-05T22:44:04.000Z,27.4
2018-08-05T22:54:04.000Z,27.39
2018-08-05T23:04:04.000Z,27.37
2018-08-05T23:14:04.000Z,27.37
2018-08-05T23:24:04.000Z,27.37
2018-08-05T23:34:04.000Z,27.35
2018-08-05T23:44:04.000Z,27.27
2018-08-05T23:54:04.000Z,27.27
